sensor_id;sensor_type;location;lat;lon;timestamp;P1;durP1;ratioP1;P2;durP2;ratioP2
52686;SDS011;38584;49.426;8.396;2023-09-19T00:00:45;5.40;;;1.88;;
52686;SDS011;38584;49.426;8.396;2023-09-19T00:03:15;6.07;;;1.80;;
52686;SDS011;38584;49.426;8.396;2023-09-19T00:05:43;6.45;;;1.77;;
52686;SDS011;38584;49.426;8.396;2023-09-19T00:08:09;9.27;;;2.10;;
52686;SDS011;38584;49.426;8.396;2023-09-19T00:10:34;7.97;;;2.00;;
52686;SDS011;38584;49.426;8.396;2023-09-19T00:13:00;7.28;;;1.90;;
52686;SDS011;38584;49.426;8.396;2023-09-19T00:15:37;7.82;;;2.00;;
52686;SDS011;38584;49.426;8.396;2023-09-19T00:18:04;5.60;;;1.83;;
52686;SDS011;38584;49.426;8.396;2023-09-19T00:20:37;7.45;;;1.77;;
52686;SDS011;38584;49.426;8.396;2023-09-19T00:23:06;10.55;;;2.30;;
52686;SDS011;38584;49.426;8.396;2023-09-19T00:25:45;6.15;;;1.90;;
52686;SDS011;38584;49.426;8.396;2023-09-19T00:28:14;9.55;;;2.20;;
52686;SDS011;38584;49.426;8.396;2023-09-19T00:30:42;9.82;;;2.00;;
52686;SDS011;38584;49.426;8.396;2023-09-19T00:33:07;5.90;;;1.90;;
52686;SDS011;38584;49.426;8.396;2023-09-19T00:35:33;8.48;;;2.15;;
52686;SDS011;38584;49.426;8.396;2023-09-19T00:37:58;7.55;;;1.92;;
52686;SDS011;38584;49.426;8.396;2023-09-19T00:40:25;9.73;;;2.00;;
52686;SDS011;38584;49.426;8.396;2023-09-19T00:42:56;12.25;;;2.10;;
52686;SDS011;38584;49.426;8.396;2023-09-19T00:45:24;5.88;;;1.85;;
52686;SDS011;38584;49.426;8.396;2023-09-19T00:47:53;6.55;;;2.05;;
52686;SDS011;38584;49.426;8.396;2023-09-19T00:50:22;5.68;;;1.80;;
52686;SDS011;38584;49.426;8.396;2023-09-19T00:52:54;5.70;;;1.80;;
52686;SDS011;38584;49.426;8.396;2023-09-19T00:55:22;7.47;;;2.10;;
52686;SDS011;38584;49.426;8.396;2023-09-19T00:57:49;10.50;;;2.03;;
52686;SDS011;38584;49.426;8.396;2023-09-19T01:00:15;7.65;;;1.90;;
52686;SDS011;38584;49.426;8.396;2023-09-19T01:02:44;7.45;;;2.30;;
52686;SDS011;38584;49.426;8.396;2023-09-19T01:05:10;8.10;;;2.10;;
52686;SDS011;38584;49.426;8.396;2023-09-19T01:07:43;10.25;;;2.17;;
52686;SDS011;38584;49.426;8.396;2023-09-19T01:10:13;6.75;;;2.10;;
52686;SDS011;38584;49.426;8.396;2023-09-19T01:17:45;9.98;;;2.17;;
52686;SDS011;38584;49.426;8.396;2023-09-19T01:20:17;7.38;;;2.38;;
52686;SDS011;38584;49.426;8.396;2023-09-19T01:28:07;10.13;;;2.70;;
52686;SDS011;38584;49.426;8.396;2023-09-19T01:30:43;10.32;;;2.22;;
52686;SDS011;38584;49.426;8.396;2023-09-19T01:33:08;11.20;;;2.35;;
52686;SDS011;38584;49.426;8.396;2023-09-19T01:35:37;8.05;;;2.28;;
52686;SDS011;38584;49.426;8.396;2023-09-19T01:38:04;7.22;;;2.42;;
52686;SDS011;38584;49.426;8.396;2023-09-19T01:40:33;6.70;;;2.10;;
52686;SDS011;38584;49.426;8.396;2023-09-19T01:50:59;9.43;;;2.38;;
52686;SDS011;38584;49.426;8.396;2023-09-19T01:56:25;12.93;;;2.20;;
52686;SDS011;38584;49.426;8.396;2023-09-19T01:59:02;8.30;;;2.20;;
52686;SDS011;38584;49.426;8.396;2023-09-19T02:01:31;11.18;;;2.22;;
52686;SDS011;38584;49.426;8.396;2023-09-19T02:03:56;6.80;;;2.10;;
52686;SDS011;38584;49.426;8.396;2023-09-19T02:06:21;6.65;;;2.10;;
52686;SDS011;38584;49.426;8.396;2023-09-19T02:08:50;6.43;;;2.10;;
52686;SDS011;38584;49.426;8.396;2023-09-19T02:11:15;6.50;;;1.80;;
52686;SDS011;38584;49.426;8.396;2023-09-19T02:13:41;11.25;;;2.10;;
52686;SDS011;38584;49.426;8.396;2023-09-19T02:16:06;6.13;;;2.10;;
52686;SDS011;38584;49.426;8.396;2023-09-19T02:18:32;10.30;;;2.67;;
52686;SDS011;38584;49.426;8.396;2023-09-19T02:20:59;8.75;;;2.03;;
52686;SDS011;38584;49.426;8.396;2023-09-19T02:23:25;5.45;;;2.08;;
52686;SDS011;38584;49.426;8.396;2023-09-19T02:25:51;9.50;;;2.10;;
52686;SDS011;38584;49.426;8.396;2023-09-19T02:28:21;7.65;;;1.95;;
52686;SDS011;38584;49.426;8.396;2023-09-19T02:30:50;12.45;;;2.28;;
52686;SDS011;38584;49.426;8.396;2023-09-19T02:33:16;9.57;;;2.38;;
52686;SDS011;38584;49.426;8.396;2023-09-19T02:35:42;9.50;;;2.30;;
52686;SDS011;38584;49.426;8.396;2023-09-19T02:38:07;12.07;;;3.00;;
52686;SDS011;38584;49.426;8.396;2023-09-19T02:40:33;7.97;;;2.28;;
52686;SDS011;38584;49.426;8.396;2023-09-19T02:43:00;8.00;;;2.45;;
52686;SDS011;38584;49.426;8.396;2023-09-19T02:45:29;7.32;;;2.30;;
52686;SDS011;38584;49.426;8.396;2023-09-19T02:47:55;5.57;;;1.90;;
52686;SDS011;38584;49.426;8.396;2023-09-19T02:50:27;7.40;;;2.67;;
52686;SDS011;38584;49.426;8.396;2023-09-19T02:52:58;9.00;;;2.13;;
52686;SDS011;38584;49.426;8.396;2023-09-19T02:55:24;7.53;;;1.92;;
52686;SDS011;38584;49.426;8.396;2023-09-19T02:57:49;6.80;;;1.90;;
52686;SDS011;38584;49.426;8.396;2023-09-19T03:00:17;12.43;;;2.53;;
52686;SDS011;38584;49.426;8.396;2023-09-19T03:02:49;8.30;;;2.13;;
52686;SDS011;38584;49.426;8.396;2023-09-19T03:05:16;9.27;;;2.50;;
52686;SDS011;38584;49.426;8.396;2023-09-19T03:07:43;5.07;;;2.00;;
52686;SDS011;38584;49.426;8.396;2023-09-19T03:10:10;11.52;;;3.05;;
52686;SDS011;38584;49.426;8.396;2023-09-19T03:12:36;11.57;;;1.88;;
52686;SDS011;38584;49.426;8.396;2023-09-19T03:15:01;7.55;;;2.45;;
52686;SDS011;38584;49.426;8.396;2023-09-19T03:17:29;9.15;;;2.17;;
52686;SDS011;38584;49.426;8.396;2023-09-19T03:20:00;9.23;;;2.00;;
52686;SDS011;38584;49.426;8.396;2023-09-19T03:22:29;6.90;;;1.90;;
52686;SDS011;38584;49.426;8.396;2023-09-19T03:24:54;6.30;;;1.88;;
52686;SDS011;38584;49.426;8.396;2023-09-19T03:27:19;6.72;;;2.13;;
52686;SDS011;38584;49.426;8.396;2023-09-19T03:29:51;8.38;;;1.88;;
52686;SDS011;38584;49.426;8.396;2023-09-19T03:32:17;12.60;;;2.47;;
52686;SDS011;38584;49.426;8.396;2023-09-19T03:34:42;6.68;;;2.30;;
52686;SDS011;38584;49.426;8.396;2023-09-19T03:37:09;8.30;;;2.67;;
52686;SDS011;38584;49.426;8.396;2023-09-19T03:39:38;7.93;;;2.08;;
52686;SDS011;38584;49.426;8.396;2023-09-19T03:42:04;8.05;;;2.30;;
52686;SDS011;38584;49.426;8.396;2023-09-19T03:44:32;11.88;;;2.75;;
52686;SDS011;38584;49.426;8.396;2023-09-19T03:46:57;11.63;;;2.38;;
52686;SDS011;38584;49.426;8.396;2023-09-19T03:49:25;10.48;;;2.53;;
52686;SDS011;38584;49.426;8.396;2023-09-19T03:51:51;6.72;;;2.28;;
52686;SDS011;38584;49.426;8.396;2023-09-19T03:54:16;12.55;;;2.80;;
52686;SDS011;38584;49.426;8.396;2023-09-19T03:56:42;12.77;;;2.65;;
52686;SDS011;38584;49.426;8.396;2023-09-19T03:59:11;8.48;;;2.30;;
52686;SDS011;38584;49.426;8.396;2023-09-19T04:01:37;7.68;;;2.30;;
52686;SDS011;38584;49.426;8.396;2023-09-19T04:04:08;14.73;;;2.70;;
52686;SDS011;38584;49.426;8.396;2023-09-19T04:06:34;13.13;;;2.70;;
52686;SDS011;38584;49.426;8.396;2023-09-19T04:09:03;11.05;;;2.40;;
52686;SDS011;38584;49.426;8.396;2023-09-19T04:11:34;7.55;;;2.30;;
52686;SDS011;38584;49.426;8.396;2023-09-19T04:14:02;11.60;;;2.97;;
52686;SDS011;38584;49.426;8.396;2023-09-19T04:16:28;12.38;;;2.90;;
52686;SDS011;38584;49.426;8.396;2023-09-19T04:18:53;10.05;;;2.58;;
52686;SDS011;38584;49.426;8.396;2023-09-19T04:21:19;10.40;;;2.90;;
52686;SDS011;38584;49.426;8.396;2023-09-19T04:23:44;13.45;;;2.72;;
52686;SDS011;38584;49.426;8.396;2023-09-19T04:26:09;12.85;;;2.67;;
52686;SDS011;38584;49.426;8.396;2023-09-19T04:28:35;11.82;;;2.35;;
52686;SDS011;38584;49.426;8.396;2023-09-19T04:31:03;13.55;;;2.78;;
52686;SDS011;38584;49.426;8.396;2023-09-19T04:33:28;11.45;;;2.92;;
52686;SDS011;38584;49.426;8.396;2023-09-19T04:35:54;13.07;;;2.67;;
52686;SDS011;38584;49.426;8.396;2023-09-19T04:38:20;12.38;;;2.63;;
52686;SDS011;38584;49.426;8.396;2023-09-19T04:40:45;14.80;;;2.55;;
52686;SDS011;38584;49.426;8.396;2023-09-19T04:43:11;14.05;;;3.15;;
52686;SDS011;38584;49.426;8.396;2023-09-19T04:45:37;13.80;;;2.50;;
52686;SDS011;38584;49.426;8.396;2023-09-19T04:48:04;14.68;;;2.50;;
52686;SDS011;38584;49.426;8.396;2023-09-19T04:50:31;14.93;;;2.67;;
52686;SDS011;38584;49.426;8.396;2023-09-19T04:52:56;15.10;;;2.70;;
52686;SDS011;38584;49.426;8.396;2023-09-19T04:55:21;11.57;;;2.50;;
52686;SDS011;38584;49.426;8.396;2023-09-19T04:57:47;18.63;;;3.05;;
52686;SDS011;38584;49.426;8.396;2023-09-19T05:00:14;10.75;;;2.80;;
52686;SDS011;38584;49.426;8.396;2023-09-19T05:02:41;8.70;;;2.65;;
52686;SDS011;38584;49.426;8.396;2023-09-19T05:05:07;11.93;;;2.60;;
52686;SDS011;38584;49.426;8.396;2023-09-19T05:07:33;10.13;;;2.55;;
52686;SDS011;38584;49.426;8.396;2023-09-19T05:09:59;8.68;;;2.40;;
52686;SDS011;38584;49.426;8.396;2023-09-19T05:12:26;10.27;;;2.45;;
52686;SDS011;38584;49.426;8.396;2023-09-19T05:14:52;12.15;;;2.58;;
52686;SDS011;38584;49.426;8.396;2023-09-19T05:17:17;13.45;;;2.47;;
52686;SDS011;38584;49.426;8.396;2023-09-19T05:19:43;13.48;;;2.83;;
52686;SDS011;38584;49.426;8.396;2023-09-19T05:22:08;10.45;;;2.28;;
52686;SDS011;38584;49.426;8.396;2023-09-19T05:24:33;10.13;;;2.58;;
52686;SDS011;38584;49.426;8.396;2023-09-19T05:27:02;12.30;;;2.70;;
52686;SDS011;38584;49.426;8.396;2023-09-19T05:29:29;10.43;;;2.65;;
52686;SDS011;38584;49.426;8.396;2023-09-19T05:31:54;10.35;;;3.03;;
52686;SDS011;38584;49.426;8.396;2023-09-19T05:34:23;10.10;;;2.85;;
52686;SDS011;38584;49.426;8.396;2023-09-19T05:36:53;11.02;;;2.63;;
52686;SDS011;38584;49.426;8.396;2023-09-19T05:39:19;9.45;;;2.53;;
52686;SDS011;38584;49.426;8.396;2023-09-19T05:41:44;8.05;;;2.75;;
52686;SDS011;38584;49.426;8.396;2023-09-19T05:44:12;10.90;;;3.20;;
52686;SDS011;38584;49.426;8.396;2023-09-19T05:46:39;12.75;;;2.97;;
52686;SDS011;38584;49.426;8.396;2023-09-19T05:49:04;13.43;;;3.20;;
52686;SDS011;38584;49.426;8.396;2023-09-19T05:51:36;13.13;;;3.63;;
52686;SDS011;38584;49.426;8.396;2023-09-19T05:54:01;16.05;;;3.80;;
52686;SDS011;38584;49.426;8.396;2023-09-19T05:56:26;14.90;;;3.50;;
52686;SDS011;38584;49.426;8.396;2023-09-19T05:58:55;16.65;;;3.70;;
52686;SDS011;38584;49.426;8.396;2023-09-19T06:01:20;14.80;;;3.15;;
52686;SDS011;38584;49.426;8.396;2023-09-19T06:03:46;12.50;;;2.95;;
52686;SDS011;38584;49.426;8.396;2023-09-19T06:06:11;11.07;;;2.67;;
52686;SDS011;38584;49.426;8.396;2023-09-19T06:08:36;8.75;;;2.60;;
52686;SDS011;38584;49.426;8.396;2023-09-19T06:11:02;13.80;;;2.65;;
52686;SDS011;38584;49.426;8.396;2023-09-19T06:13:28;13.82;;;3.22;;
52686;SDS011;38584;49.426;8.396;2023-09-19T06:15:56;13.10;;;3.25;;
52686;SDS011;38584;49.426;8.396;2023-09-19T06:18:21;12.82;;;2.88;;
52686;SDS011;38584;49.426;8.396;2023-09-19T06:20:50;15.48;;;2.97;;
52686;SDS011;38584;49.426;8.396;2023-09-19T06:23:16;11.77;;;2.42;;
52686;SDS011;38584;49.426;8.396;2023-09-19T06:25:42;10.77;;;2.88;;
52686;SDS011;38584;49.426;8.396;2023-09-19T06:28:11;13.10;;;2.83;;
52686;SDS011;38584;49.426;8.396;2023-09-19T06:30:45;9.68;;;2.50;;
52686;SDS011;38584;49.426;8.396;2023-09-19T06:33:19;12.27;;;2.80;;
52686;SDS011;38584;49.426;8.396;2023-09-19T06:35:46;11.43;;;2.63;;
52686;SDS011;38584;49.426;8.396;2023-09-19T06:38:15;14.00;;;2.97;;
52686;SDS011;38584;49.426;8.396;2023-09-19T06:40:42;15.98;;;3.10;;
52686;SDS011;38584;49.426;8.396;2023-09-19T06:43:10;9.68;;;2.92;;
52686;SDS011;38584;49.426;8.396;2023-09-19T06:45:42;11.18;;;3.00;;
52686;SDS011;38584;49.426;8.396;2023-09-19T06:48:07;16.27;;;3.40;;
52686;SDS011;38584;49.426;8.396;2023-09-19T06:50:34;13.02;;;2.80;;
52686;SDS011;38584;49.426;8.396;2023-09-19T06:53:00;13.32;;;3.08;;
52686;SDS011;38584;49.426;8.396;2023-09-19T06:55:27;16.92;;;3.10;;
52686;SDS011;38584;49.426;8.396;2023-09-19T06:57:56;12.20;;;3.00;;
52686;SDS011;38584;49.426;8.396;2023-09-19T07:00:24;15.82;;;2.88;;
52686;SDS011;38584;49.426;8.396;2023-09-19T07:03:03;13.35;;;3.08;;
52686;SDS011;38584;49.426;8.396;2023-09-19T07:05:35;11.85;;;2.63;;
52686;SDS011;38584;49.426;8.396;2023-09-19T07:08:04;15.32;;;4.13;;
52686;SDS011;38584;49.426;8.396;2023-09-19T07:10:34;11.88;;;3.13;;
52686;SDS011;38584;49.426;8.396;2023-09-19T07:13:03;10.48;;;2.95;;
52686;SDS011;38584;49.426;8.396;2023-09-19T07:15:29;10.75;;;2.70;;
52686;SDS011;38584;49.426;8.396;2023-09-19T07:17:58;11.85;;;2.80;;
52686;SDS011;38584;49.426;8.396;2023-09-19T07:20:25;11.60;;;2.72;;
52686;SDS011;38584;49.426;8.396;2023-09-19T07:23:00;10.65;;;2.67;;
52686;SDS011;38584;49.426;8.396;2023-09-19T07:27:51;12.77;;;3.03;;
52686;SDS011;38584;49.426;8.396;2023-09-19T07:30:20;10.38;;;2.70;;
52686;SDS011;38584;49.426;8.396;2023-09-19T07:32:45;10.05;;;2.38;;
52686;SDS011;38584;49.426;8.396;2023-09-19T07:35:10;8.43;;;1.98;;
52686;SDS011;38584;49.426;8.396;2023-09-19T07:37:37;9.13;;;1.90;;
52686;SDS011;38584;49.426;8.396;2023-09-19T07:40:02;11.68;;;2.25;;
52686;SDS011;38584;49.426;8.396;2023-09-19T07:42:34;9.65;;;2.30;;
52686;SDS011;38584;49.426;8.396;2023-09-19T07:45:01;11.50;;;2.17;;
52686;SDS011;38584;49.426;8.396;2023-09-19T07:47:28;11.93;;;2.20;;
52686;SDS011;38584;49.426;8.396;2023-09-19T07:49:55;7.90;;;2.20;;
52686;SDS011;38584;49.426;8.396;2023-09-19T07:52:20;8.05;;;2.08;;
52686;SDS011;38584;49.426;8.396;2023-09-19T07:54:47;8.85;;;1.75;;
52686;SDS011;38584;49.426;8.396;2023-09-19T07:57:14;8.45;;;2.08;;
52686;SDS011;38584;49.426;8.396;2023-09-19T07:59:40;9.73;;;2.10;;
52686;SDS011;38584;49.426;8.396;2023-09-19T08:02:07;8.35;;;2.00;;
52686;SDS011;38584;49.426;8.396;2023-09-19T08:04:37;11.90;;;2.95;;
52686;SDS011;38584;49.426;8.396;2023-09-19T08:07:02;6.80;;;1.88;;
52686;SDS011;38584;49.426;8.396;2023-09-19T08:09:32;25.00;;;3.20;;
52686;SDS011;38584;49.426;8.396;2023-09-19T08:11:58;9.85;;;2.08;;
52686;SDS011;38584;49.426;8.396;2023-09-19T08:14:24;9.02;;;2.20;;
52686;SDS011;38584;49.426;8.396;2023-09-19T08:16:56;11.25;;;1.90;;
52686;SDS011;38584;49.426;8.396;2023-09-19T08:19:22;13.43;;;2.75;;
52686;SDS011;38584;49.426;8.396;2023-09-19T08:21:51;12.70;;;3.00;;
52686;SDS011;38584;49.426;8.396;2023-09-19T08:24:16;14.52;;;1.75;;
52686;SDS011;38584;49.426;8.396;2023-09-19T08:26:43;6.95;;;1.88;;
52686;SDS011;38584;49.426;8.396;2023-09-19T08:29:09;11.23;;;2.22;;
52686;SDS011;38584;49.426;8.396;2023-09-19T08:31:37;11.00;;;2.50;;
52686;SDS011;38584;49.426;8.396;2023-09-19T08:34:02;7.25;;;1.95;;
52686;SDS011;38584;49.426;8.396;2023-09-19T08:36:28;7.47;;;2.17;;
52686;SDS011;38584;49.426;8.396;2023-09-19T08:38:53;10.85;;;2.55;;
52686;SDS011;38584;49.426;8.396;2023-09-19T08:41:18;10.48;;;2.10;;
52686;SDS011;38584;49.426;8.396;2023-09-19T08:43:43;7.30;;;2.13;;
52686;SDS011;38584;49.426;8.396;2023-09-19T08:46:15;8.98;;;2.20;;
52686;SDS011;38584;49.426;8.396;2023-09-19T08:48:45;9.07;;;2.33;;
52686;SDS011;38584;49.426;8.396;2023-09-19T08:51:27;13.10;;;2.30;;
52686;SDS011;38584;49.426;8.396;2023-09-19T08:53:58;8.73;;;2.03;;
52686;SDS011;38584;49.426;8.396;2023-09-19T08:56:31;8.90;;;2.28;;
52686;SDS011;38584;49.426;8.396;2023-09-19T08:58:59;11.45;;;1.95;;
52686;SDS011;38584;49.426;8.396;2023-09-19T09:01:27;14.88;;;2.20;;
52686;SDS011;38584;49.426;8.396;2023-09-19T09:03:53;11.52;;;2.33;;
52686;SDS011;38584;49.426;8.396;2023-09-19T09:06:20;7.18;;;2.00;;
52686;SDS011;38584;49.426;8.396;2023-09-19T09:08:45;6.72;;;1.80;;
52686;SDS011;38584;49.426;8.396;2023-09-19T09:11:12;8.82;;;2.15;;
52686;SDS011;38584;49.426;8.396;2023-09-19T09:13:38;10.18;;;2.05;;
52686;SDS011;38584;49.426;8.396;2023-09-19T09:16:04;9.15;;;2.00;;
52686;SDS011;38584;49.426;8.396;2023-09-19T09:18:32;13.15;;;2.40;;
52686;SDS011;38584;49.426;8.396;2023-09-19T09:20:58;8.10;;;1.88;;
52686;SDS011;38584;49.426;8.396;2023-09-19T09:23:23;9.27;;;2.25;;
52686;SDS011;38584;49.426;8.396;2023-09-19T09:25:51;9.55;;;1.88;;
52686;SDS011;38584;49.426;8.396;2023-09-19T09:28:20;10.50;;;2.03;;
52686;SDS011;38584;49.426;8.396;2023-09-19T09:30:47;9.85;;;2.13;;
52686;SDS011;38584;49.426;8.396;2023-09-19T09:33:15;5.95;;;1.67;;
52686;SDS011;38584;49.426;8.396;2023-09-19T09:36:00;12.00;;;2.10;;
52686;SDS011;38584;49.426;8.396;2023-09-19T09:38:42;9.88;;;2.13;;
52686;SDS011;38584;49.426;8.396;2023-09-19T09:41:09;8.25;;;1.65;;
52686;SDS011;38584;49.426;8.396;2023-09-19T09:43:37;7.45;;;2.00;;
52686;SDS011;38584;49.426;8.396;2023-09-19T09:46:09;5.55;;;1.80;;
52686;SDS011;38584;49.426;8.396;2023-09-19T09:48:55;11.82;;;2.10;;
52686;SDS011;38584;49.426;8.396;2023-09-19T09:52:05;9.80;;;2.15;;
52686;SDS011;38584;49.426;8.396;2023-09-19T09:54:35;7.78;;;2.00;;
52686;SDS011;38584;49.426;8.396;2023-09-19T10:00:01;10.65;;;2.10;;
52686;SDS011;38584;49.426;8.396;2023-09-19T10:02:36;7.47;;;1.90;;
52686;SDS011;38584;49.426;8.396;2023-09-19T10:05:17;9.70;;;2.08;;
52686;SDS011;38584;49.426;8.396;2023-09-19T10:07:52;8.85;;;1.95;;
52686;SDS011;38584;49.426;8.396;2023-09-19T10:10:45;9.77;;;2.20;;
52686;SDS011;38584;49.426;8.396;2023-09-19T10:13:17;10.48;;;1.90;;
52686;SDS011;38584;49.426;8.396;2023-09-19T10:15:49;4.95;;;1.63;;
52686;SDS011;38584;49.426;8.396;2023-09-19T10:18:23;7.03;;;1.80;;
52686;SDS011;38584;49.426;8.396;2023-09-19T10:20:52;8.35;;;1.80;;
52686;SDS011;38584;49.426;8.396;2023-09-19T10:23:18;8.27;;;1.80;;
52686;SDS011;38584;49.426;8.396;2023-09-19T10:25:57;9.60;;;2.13;;
52686;SDS011;38584;49.426;8.396;2023-09-19T10:28:26;10.55;;;2.25;;
52686;SDS011;38584;49.426;8.396;2023-09-19T10:30:53;12.35;;;2.10;;
52686;SDS011;38584;49.426;8.396;2023-09-19T10:33:22;8.27;;;1.88;;
52686;SDS011;38584;49.426;8.396;2023-09-19T10:35:52;10.90;;;2.10;;
52686;SDS011;38584;49.426;8.396;2023-09-19T10:38:24;10.30;;;2.08;;
52686;SDS011;38584;49.426;8.396;2023-09-19T10:40:52;13.30;;;2.30;;
52686;SDS011;38584;49.426;8.396;2023-09-19T10:43:20;9.02;;;2.00;;
52686;SDS011;38584;49.426;8.396;2023-09-19T10:45:47;5.80;;;1.63;;
52686;SDS011;38584;49.426;8.396;2023-09-19T10:48:18;6.88;;;1.75;;
52686;SDS011;38584;49.426;8.396;2023-09-19T10:50:52;10.27;;;2.30;;
52686;SDS011;38584;49.426;8.396;2023-09-19T10:53:58;8.05;;;1.63;;
52686;SDS011;38584;49.426;8.396;2023-09-19T10:56:33;8.07;;;1.90;;
52686;SDS011;38584;49.426;8.396;2023-09-19T10:59:12;7.30;;;1.95;;
52686;SDS011;38584;49.426;8.396;2023-09-19T11:01:42;10.10;;;1.98;;
52686;SDS011;38584;49.426;8.396;2023-09-19T11:09:43;10.25;;;2.03;;
52686;SDS011;38584;49.426;8.396;2023-09-19T11:15:02;11.93;;;2.13;;
52686;SDS011;38584;49.426;8.396;2023-09-19T11:30:50;7.35;;;1.80;;
52686;SDS011;38584;49.426;8.396;2023-09-19T11:33:26;8.55;;;2.08;;
52686;SDS011;38584;49.426;8.396;2023-09-19T11:39:01;12.13;;;2.05;;
52686;SDS011;38584;49.426;8.396;2023-09-19T11:43:45;7.88;;;1.75;;
52686;SDS011;38584;49.426;8.396;2023-09-19T11:46:11;7.07;;;1.75;;
52686;SDS011;38584;49.426;8.396;2023-09-19T11:48:41;6.18;;;1.85;;
52686;SDS011;38584;49.426;8.396;2023-09-19T11:51:13;5.72;;;1.83;;
52686;SDS011;38584;49.426;8.396;2023-09-19T11:53:55;5.72;;;1.60;;
52686;SDS011;38584;49.426;8.396;2023-09-19T11:56:25;9.75;;;2.00;;
52686;SDS011;38584;49.426;8.396;2023-09-19T11:58:55;7.15;;;1.80;;
52686;SDS011;38584;49.426;8.396;2023-09-19T12:01:23;7.22;;;1.80;;
52686;SDS011;38584;49.426;8.396;2023-09-19T12:03:55;9.20;;;1.70;;
52686;SDS011;38584;49.426;8.396;2023-09-19T12:06:25;7.15;;;1.55;;
52686;SDS011;38584;49.426;8.396;2023-09-19T12:08:52;6.25;;;1.88;;
52686;SDS011;38584;49.426;8.396;2023-09-19T12:11:19;7.55;;;1.98;;
52686;SDS011;38584;49.426;8.396;2023-09-19T12:13:51;6.15;;;1.63;;
52686;SDS011;38584;49.426;8.396;2023-09-19T12:16:18;9.40;;;1.55;;
52686;SDS011;38584;49.426;8.396;2023-09-19T12:18:48;8.75;;;2.00;;
52686;SDS011;38584;49.426;8.396;2023-09-19T12:21:21;6.35;;;1.70;;
52686;SDS011;38584;49.426;8.396;2023-09-19T12:26:42;6.13;;;1.65;;
52686;SDS011;38584;49.426;8.396;2023-09-19T12:29:12;8.55;;;1.98;;
52686;SDS011;38584;49.426;8.396;2023-09-19T12:31:47;5.40;;;1.55;;
52686;SDS011;38584;49.426;8.396;2023-09-19T12:34:16;7.88;;;1.92;;
52686;SDS011;38584;49.426;8.396;2023-09-19T12:36:44;8.40;;;2.03;;
52686;SDS011;38584;49.426;8.396;2023-09-19T12:39:10;7.78;;;2.10;;
52686;SDS011;38584;49.426;8.396;2023-09-19T12:41:36;7.43;;;1.70;;
52686;SDS011;38584;49.426;8.396;2023-09-19T12:44:02;5.78;;;1.88;;
52686;SDS011;38584;49.426;8.396;2023-09-19T12:46:33;6.00;;;1.80;;
52686;SDS011;38584;49.426;8.396;2023-09-19T12:49:15;8.55;;;1.95;;
52686;SDS011;38584;49.426;8.396;2023-09-19T12:51:48;9.18;;;1.95;;
52686;SDS011;38584;49.426;8.396;2023-09-19T12:54:14;7.68;;;1.98;;
52686;SDS011;38584;49.426;8.396;2023-09-19T12:56:46;7.95;;;1.88;;
52686;SDS011;38584;49.426;8.396;2023-09-19T12:59:14;7.50;;;2.00;;
52686;SDS011;38584;49.426;8.396;2023-09-19T13:01:40;5.25;;;1.83;;
52686;SDS011;38584;49.426;8.396;2023-09-19T13:04:21;5.90;;;1.70;;
52686;SDS011;38584;49.426;8.396;2023-09-19T13:06:55;8.95;;;2.33;;
52686;SDS011;38584;49.426;8.396;2023-09-19T13:09:25;7.13;;;1.92;;
52686;SDS011;38584;49.426;8.396;2023-09-19T13:11:59;7.47;;;2.00;;
52686;SDS011;38584;49.426;8.396;2023-09-19T13:14:27;8.45;;;1.90;;
52686;SDS011;38584;49.426;8.396;2023-09-19T13:17:08;7.72;;;1.75;;
52686;SDS011;38584;49.426;8.396;2023-09-19T13:19:48;5.05;;;1.55;;
52686;SDS011;38584;49.426;8.396;2023-09-19T13:25:19;8.23;;;1.98;;
52686;SDS011;38584;49.426;8.396;2023-09-19T13:27:45;6.30;;;1.90;;
52686;SDS011;38584;49.426;8.396;2023-09-19T13:30:24;8.75;;;1.88;;
52686;SDS011;38584;49.426;8.396;2023-09-19T13:33:10;8.10;;;2.05;;
52686;SDS011;38584;49.426;8.396;2023-09-19T13:35:39;7.68;;;1.92;;
52686;SDS011;38584;49.426;8.396;2023-09-19T13:38:07;8.07;;;2.00;;
52686;SDS011;38584;49.426;8.396;2023-09-19T13:40:36;5.47;;;1.42;;
52686;SDS011;38584;49.426;8.396;2023-09-19T13:43:01;9.13;;;1.80;;
52686;SDS011;38584;49.426;8.396;2023-09-19T13:45:27;7.28;;;1.73;;
52686;SDS011;38584;49.426;8.396;2023-09-19T13:47:55;6.07;;;1.80;;
52686;SDS011;38584;49.426;8.396;2023-09-19T13:50:24;9.00;;;1.80;;
52686;SDS011;38584;49.426;8.396;2023-09-19T13:52:50;6.32;;;1.80;;
52686;SDS011;38584;49.426;8.396;2023-09-19T13:55:19;6.15;;;1.67;;
52686;SDS011;38584;49.426;8.396;2023-09-19T13:57:45;7.45;;;1.83;;
52686;SDS011;38584;49.426;8.396;2023-09-19T14:00:27;5.43;;;1.50;;
52686;SDS011;38584;49.426;8.396;2023-09-19T14:02:52;9.23;;;2.28;;
52686;SDS011;38584;49.426;8.396;2023-09-19T14:05:17;4.10;;;1.60;;
52686;SDS011;38584;49.426;8.396;2023-09-19T14:07:44;8.70;;;1.70;;
52686;SDS011;38584;49.426;8.396;2023-09-19T14:10:15;5.80;;;1.58;;
52686;SDS011;38584;49.426;8.396;2023-09-19T14:12:40;7.03;;;1.70;;
52686;SDS011;38584;49.426;8.396;2023-09-19T14:15:06;7.72;;;1.70;;
52686;SDS011;38584;49.426;8.396;2023-09-19T14:17:37;9.60;;;1.92;;
52686;SDS011;38584;49.426;8.396;2023-09-19T14:20:02;7.22;;;1.98;;
52686;SDS011;38584;49.426;8.396;2023-09-19T14:22:28;8.57;;;1.88;;
52686;SDS011;38584;49.426;8.396;2023-09-19T14:24:53;7.53;;;1.80;;
52686;SDS011;38584;49.426;8.396;2023-09-19T14:27:25;6.13;;;1.63;;
52686;SDS011;38584;49.426;8.396;2023-09-19T14:29:52;7.32;;;1.60;;
52686;SDS011;38584;49.426;8.396;2023-09-19T14:32:17;9.20;;;1.85;;
52686;SDS011;38584;49.426;8.396;2023-09-19T14:34:43;6.13;;;1.60;;
52686;SDS011;38584;49.426;8.396;2023-09-19T14:37:09;6.85;;;1.70;;
52686;SDS011;38584;49.426;8.396;2023-09-19T14:39:36;6.90;;;1.65;;
52686;SDS011;38584;49.426;8.396;2023-09-19T14:42:03;6.57;;;1.63;;
52686;SDS011;38584;49.426;8.396;2023-09-19T14:44:29;7.22;;;1.63;;
52686;SDS011;38584;49.426;8.396;2023-09-19T14:46:55;8.02;;;1.83;;
52686;SDS011;38584;49.426;8.396;2023-09-19T14:49:20;8.02;;;1.80;;
52686;SDS011;38584;49.426;8.396;2023-09-19T14:51:45;6.90;;;1.65;;
52686;SDS011;38584;49.426;8.396;2023-09-19T14:54:13;5.25;;;1.40;;
52686;SDS011;38584;49.426;8.396;2023-09-19T14:56:41;8.30;;;1.65;;
52686;SDS011;38584;49.426;8.396;2023-09-19T14:59:07;6.40;;;1.73;;
52686;SDS011;38584;49.426;8.396;2023-09-19T15:01:32;5.65;;;1.73;;
52686;SDS011;38584;49.426;8.396;2023-09-19T15:03:58;6.53;;;1.67;;
52686;SDS011;38584;49.426;8.396;2023-09-19T15:06:25;6.43;;;1.65;;
52686;SDS011;38584;49.426;8.396;2023-09-19T15:08:54;6.32;;;1.70;;
52686;SDS011;38584;49.426;8.396;2023-09-19T15:11:19;7.85;;;1.80;;
52686;SDS011;38584;49.426;8.396;2023-09-19T15:13:46;8.23;;;1.80;;
52686;SDS011;38584;49.426;8.396;2023-09-19T15:16:12;5.18;;;1.60;;
52686;SDS011;38584;49.426;8.396;2023-09-19T15:18:45;8.18;;;1.65;;
52686;SDS011;38584;49.426;8.396;2023-09-19T15:23:40;6.93;;;1.70;;
52686;SDS011;38584;49.426;8.396;2023-09-19T15:26:09;7.60;;;1.60;;
52686;SDS011;38584;49.426;8.396;2023-09-19T15:28:41;6.32;;;1.60;;
52686;SDS011;38584;49.426;8.396;2023-09-19T15:31:07;6.20;;;1.70;;
52686;SDS011;38584;49.426;8.396;2023-09-19T15:33:34;7.22;;;2.05;;
52686;SDS011;38584;49.426;8.396;2023-09-19T15:36:06;5.22;;;1.60;;
52686;SDS011;38584;49.426;8.396;2023-09-19T15:41:29;4.18;;;1.52;;
52686;SDS011;38584;49.426;8.396;2023-09-19T15:43:56;6.35;;;1.60;;
52686;SDS011;38584;49.426;8.396;2023-09-19T15:46:22;5.78;;;1.70;;
52686;SDS011;38584;49.426;8.396;2023-09-19T15:48:47;9.38;;;1.40;;
52686;SDS011;38584;49.426;8.396;2023-09-19T15:51:13;7.75;;;2.00;;
52686;SDS011;38584;49.426;8.396;2023-09-19T15:53:46;7.85;;;1.80;;
52686;SDS011;38584;49.426;8.396;2023-09-19T15:56:13;7.88;;;1.63;;